sensor_id;sensor_type;location;lat;lon;timestamp;P1;durP1;ratioP1;P2;durP2;ratioP2
41687;SDS011;27371;42.686;23.362;2023-06-24T00:03:21;10.23;;;7.35;;
41687;SDS011;27371;42.686;23.362;2023-06-24T00:05:46;9.00;;;7.82;;
41687;SDS011;27371;42.686;23.362;2023-06-24T00:08:15;9.15;;;7.32;;
41687;SDS011;27371;42.686;23.362;2023-06-24T00:10:47;7.82;;;7.05;;
41687;SDS011;27371;42.686;23.362;2023-06-24T00:13:13;8.73;;;7.38;;
41687;SDS011;27371;42.686;23.362;2023-06-24T00:15:39;9.95;;;7.78;;
41687;SDS011;27371;42.686;23.362;2023-06-24T00:18:11;10.30;;;7.32;;
41687;SDS011;27371;42.686;23.362;2023-06-24T00:20:37;11.15;;;7.70;;
41687;SDS011;27371;42.686;23.362;2023-06-24T00:23:03;8.43;;;7.50;;
41687;SDS011;27371;42.686;23.362;2023-06-24T00:25:29;8.50;;;7.68;;
41687;SDS011;27371;42.686;23.362;2023-06-24T00:27:57;8.98;;;8.18;;
41687;SDS011;27371;42.686;23.362;2023-06-24T00:30:23;7.72;;;6.90;;
41687;SDS011;27371;42.686;23.362;2023-06-24T00:32:48;8.25;;;7.28;;
41687;SDS011;27371;42.686;23.362;2023-06-24T00:35:14;8.27;;;7.22;;
41687;SDS011;27371;42.686;23.362;2023-06-24T00:37:40;8.65;;;7.43;;
41687;SDS011;27371;42.686;23.362;2023-06-24T00:40:11;9.30;;;7.65;;
41687;SDS011;27371;42.686;23.362;2023-06-24T00:42:40;9.02;;;7.00;;
41687;SDS011;27371;42.686;23.362;2023-06-24T00:45:07;8.82;;;7.68;;
41687;SDS011;27371;42.686;23.362;2023-06-24T00:47:35;10.15;;;8.18;;
41687;SDS011;27371;42.686;23.362;2023-06-24T00:50:00;7.97;;;6.95;;
41687;SDS011;27371;42.686;23.362;2023-06-24T00:52:26;8.50;;;6.68;;
41687;SDS011;27371;42.686;23.362;2023-06-24T00:54:52;12.63;;;8.75;;
41687;SDS011;27371;42.686;23.362;2023-06-24T00:57:18;8.38;;;7.20;;
41687;SDS011;27371;42.686;23.362;2023-06-24T00:59:50;8.85;;;7.95;;
41687;SDS011;27371;42.686;23.362;2023-06-24T01:02:18;8.32;;;7.50;;
41687;SDS011;27371;42.686;23.362;2023-06-24T01:04:48;8.80;;;7.53;;
41687;SDS011;27371;42.686;23.362;2023-06-24T01:07:13;10.52;;;7.22;;
41687;SDS011;27371;42.686;23.362;2023-06-24T01:09:41;8.70;;;7.68;;
41687;SDS011;27371;42.686;23.362;2023-06-24T01:12:06;8.82;;;7.93;;
41687;SDS011;27371;42.686;23.362;2023-06-24T01:14:33;10.07;;;8.02;;
41687;SDS011;27371;42.686;23.362;2023-06-24T01:17:07;11.05;;;8.30;;
41687;SDS011;27371;42.686;23.362;2023-06-24T01:33:44;8.93;;;8.02;;
41687;SDS011;27371;42.686;23.362;2023-06-24T01:36:15;10.88;;;8.25;;
41687;SDS011;27371;42.686;23.362;2023-06-24T01:38:43;8.75;;;7.85;;
41687;SDS011;27371;42.686;23.362;2023-06-24T01:41:14;9.38;;;8.48;;
41687;SDS011;27371;42.686;23.362;2023-06-24T01:43:43;9.00;;;7.78;;
41687;SDS011;27371;42.686;23.362;2023-06-24T01:46:10;10.18;;;8.18;;
41687;SDS011;27371;42.686;23.362;2023-06-24T01:48:37;8.27;;;7.47;;
41687;SDS011;27371;42.686;23.362;2023-06-24T01:51:15;8.63;;;7.75;;
41687;SDS011;27371;42.686;23.362;2023-06-24T01:53:48;9.95;;;7.70;;
41687;SDS011;27371;42.686;23.362;2023-06-24T01:56:23;8.65;;;7.43;;
41687;SDS011;27371;42.686;23.362;2023-06-24T01:58:52;8.68;;;7.90;;
41687;SDS011;27371;42.686;23.362;2023-06-24T02:01:23;8.50;;;7.68;;
41687;SDS011;27371;42.686;23.362;2023-06-24T02:03:49;9.63;;;8.48;;
41687;SDS011;27371;42.686;23.362;2023-06-24T02:06:17;9.02;;;7.65;;
41687;SDS011;27371;42.686;23.362;2023-06-24T02:08:45;8.93;;;7.93;;
41687;SDS011;27371;42.686;23.362;2023-06-24T02:11:13;8.93;;;7.93;;
41687;SDS011;27371;42.686;23.362;2023-06-24T02:13:39;10.52;;;8.13;;
41687;SDS011;27371;42.686;23.362;2023-06-24T02:16:07;10.13;;;8.32;;
41687;SDS011;27371;42.686;23.362;2023-06-24T02:18:35;9.38;;;8.15;;
41687;SDS011;27371;42.686;23.362;2023-06-24T02:21:03;9.82;;;8.13;;
41687;SDS011;27371;42.686;23.362;2023-06-24T02:23:30;10.02;;;8.20;;
41687;SDS011;27371;42.686;23.362;2023-06-24T02:25:56;16.30;;;9.05;;
41687;SDS011;27371;42.686;23.362;2023-06-24T02:28:23;9.02;;;8.10;;
41687;SDS011;27371;42.686;23.362;2023-06-24T02:30:50;9.52;;;8.60;;
41687;SDS011;27371;42.686;23.362;2023-06-24T02:33:16;10.75;;;8.75;;
41687;SDS011;27371;42.686;23.362;2023-06-24T02:35:42;14.07;;;11.80;;
41687;SDS011;27371;42.686;23.362;2023-06-24T02:38:10;12.55;;;10.45;;
41687;SDS011;27371;42.686;23.362;2023-06-24T02:40:36;12.90;;;11.60;;
41687;SDS011;27371;42.686;23.362;2023-06-24T02:43:01;12.60;;;10.25;;
41687;SDS011;27371;42.686;23.362;2023-06-24T02:45:27;12.95;;;10.20;;
41687;SDS011;27371;42.686;23.362;2023-06-24T02:47:53;13.15;;;9.63;;
41687;SDS011;27371;42.686;23.362;2023-06-24T02:50:21;14.45;;;10.13;;
41687;SDS011;27371;42.686;23.362;2023-06-24T02:52:47;12.70;;;9.63;;
41687;SDS011;27371;42.686;23.362;2023-06-24T02:55:14;11.13;;;10.02;;
41687;SDS011;27371;42.686;23.362;2023-06-24T02:57:40;11.73;;;9.77;;
41687;SDS011;27371;42.686;23.362;2023-06-24T03:00:07;15.27;;;10.50;;
41687;SDS011;27371;42.686;23.362;2023-06-24T03:02:40;15.52;;;11.45;;
41687;SDS011;27371;42.686;23.362;2023-06-24T03:05:07;14.90;;;11.00;;
41687;SDS011;27371;42.686;23.362;2023-06-24T03:07:34;13.52;;;10.38;;
41687;SDS011;27371;42.686;23.362;2023-06-24T03:10:02;13.25;;;11.27;;
41687;SDS011;27371;42.686;23.362;2023-06-24T03:12:30;12.75;;;11.32;;
41687;SDS011;27371;42.686;23.362;2023-06-24T03:14:55;15.60;;;10.30;;
41687;SDS011;27371;42.686;23.362;2023-06-24T03:17:25;12.32;;;10.43;;
41687;SDS011;27371;42.686;23.362;2023-06-24T03:19:51;18.00;;;10.98;;
41687;SDS011;27371;42.686;23.362;2023-06-24T03:22:17;11.38;;;9.93;;
41687;SDS011;27371;42.686;23.362;2023-06-24T03:24:43;12.27;;;10.18;;
41687;SDS011;27371;42.686;23.362;2023-06-24T03:27:08;12.00;;;9.68;;
41687;SDS011;27371;42.686;23.362;2023-06-24T03:29:34;13.75;;;10.48;;
41687;SDS011;27371;42.686;23.362;2023-06-24T03:32:00;14.32;;;10.43;;
41687;SDS011;27371;42.686;23.362;2023-06-24T03:34:26;13.35;;;10.60;;
41687;SDS011;27371;42.686;23.362;2023-06-24T03:36:52;12.63;;;10.57;;
41687;SDS011;27371;42.686;23.362;2023-06-24T03:39:19;12.63;;;10.30;;
41687;SDS011;27371;42.686;23.362;2023-06-24T03:41:45;15.30;;;11.23;;
41687;SDS011;27371;42.686;23.362;2023-06-24T03:44:11;13.93;;;11.30;;
41687;SDS011;27371;42.686;23.362;2023-06-24T03:46:55;13.23;;;10.73;;
41687;SDS011;27371;42.686;23.362;2023-06-24T03:49:21;20.25;;;15.63;;
41687;SDS011;27371;42.686;23.362;2023-06-24T03:51:46;18.05;;;12.45;;
41687;SDS011;27371;42.686;23.362;2023-06-24T03:54:12;15.25;;;10.68;;
41687;SDS011;27371;42.686;23.362;2023-06-24T03:56:37;12.38;;;10.30;;
41687;SDS011;27371;42.686;23.362;2023-06-24T03:59:03;13.63;;;10.48;;
41687;SDS011;27371;42.686;23.362;2023-06-24T04:01:28;15.98;;;10.48;;
41687;SDS011;27371;42.686;23.362;2023-06-24T04:03:57;13.55;;;10.63;;
41687;SDS011;27371;42.686;23.362;2023-06-24T04:06:23;16.77;;;10.60;;
41687;SDS011;27371;42.686;23.362;2023-06-24T04:08:48;17.42;;;10.20;;
41687;SDS011;27371;42.686;23.362;2023-06-24T04:11:17;14.38;;;10.40;;
41687;SDS011;27371;42.686;23.362;2023-06-24T04:13:44;12.18;;;10.05;;
41687;SDS011;27371;42.686;23.362;2023-06-24T04:16:10;11.90;;;9.55;;
41687;SDS011;27371;42.686;23.362;2023-06-24T04:18:36;15.73;;;10.05;;
41687;SDS011;27371;42.686;23.362;2023-06-24T04:21:04;14.88;;;10.23;;
41687;SDS011;27371;42.686;23.362;2023-06-24T04:23:31;12.30;;;10.30;;
41687;SDS011;27371;42.686;23.362;2023-06-24T04:25:57;12.10;;;9.88;;
41687;SDS011;27371;42.686;23.362;2023-06-24T04:28:23;16.17;;;11.18;;
41687;SDS011;27371;42.686;23.362;2023-06-24T04:30:49;11.13;;;9.95;;
41687;SDS011;27371;42.686;23.362;2023-06-24T04:33:14;14.48;;;9.98;;
41687;SDS011;27371;42.686;23.362;2023-06-24T04:35:40;14.63;;;10.10;;
41687;SDS011;27371;42.686;23.362;2023-06-24T04:38:05;15.65;;;10.60;;
41687;SDS011;27371;42.686;23.362;2023-06-24T04:40:31;14.38;;;10.85;;
41687;SDS011;27371;42.686;23.362;2023-06-24T04:42:56;14.70;;;10.85;;
41687;SDS011;27371;42.686;23.362;2023-06-24T04:45:22;12.52;;;11.13;;
41687;SDS011;27371;42.686;23.362;2023-06-24T04:47:47;14.02;;;10.88;;
41687;SDS011;27371;42.686;23.362;2023-06-24T04:50:13;18.75;;;10.68;;
41687;SDS011;27371;42.686;23.362;2023-06-24T04:52:39;12.73;;;10.55;;
41687;SDS011;27371;42.686;23.362;2023-06-24T04:55:04;12.00;;;10.65;;
41687;SDS011;27371;42.686;23.362;2023-06-24T04:57:31;11.40;;;10.13;;
41687;SDS011;27371;42.686;23.362;2023-06-24T04:59:57;10.63;;;9.55;;
41687;SDS011;27371;42.686;23.362;2023-06-24T05:02:23;12.52;;;9.55;;
41687;SDS011;27371;42.686;23.362;2023-06-24T05:04:49;15.43;;;10.85;;
41687;SDS011;27371;42.686;23.362;2023-06-24T05:07:16;13.65;;;10.52;;
41687;SDS011;27371;42.686;23.362;2023-06-24T05:09:42;11.88;;;8.90;;
41687;SDS011;27371;42.686;23.362;2023-06-24T05:12:08;13.50;;;9.68;;
41687;SDS011;27371;42.686;23.362;2023-06-24T05:14:34;10.13;;;9.05;;
41687;SDS011;27371;42.686;23.362;2023-06-24T05:17:01;10.57;;;8.05;;
41687;SDS011;27371;42.686;23.362;2023-06-24T05:19:27;10.10;;;8.20;;
41687;SDS011;27371;42.686;23.362;2023-06-24T05:21:53;10.82;;;8.82;;
41687;SDS011;27371;42.686;23.362;2023-06-24T05:24:18;8.88;;;7.65;;
41687;SDS011;27371;42.686;23.362;2023-06-24T05:26:44;8.10;;;7.28;;
41687;SDS011;27371;42.686;23.362;2023-06-24T05:29:12;8.25;;;6.93;;
41687;SDS011;27371;42.686;23.362;2023-06-24T05:31:37;8.80;;;7.70;;
41687;SDS011;27371;42.686;23.362;2023-06-24T05:34:03;9.15;;;6.90;;
41687;SDS011;27371;42.686;23.362;2023-06-24T05:36:28;11.50;;;7.72;;
41687;SDS011;27371;42.686;23.362;2023-06-24T05:38:54;10.25;;;8.23;;
41687;SDS011;27371;42.686;23.362;2023-06-24T05:41:20;18.55;;;8.80;;
41687;SDS011;27371;42.686;23.362;2023-06-24T05:43:45;12.25;;;9.65;;
41687;SDS011;27371;42.686;23.362;2023-06-24T05:46:11;12.50;;;9.65;;
41687;SDS011;27371;42.686;23.362;2023-06-24T05:48:36;10.95;;;9.95;;
41687;SDS011;27371;42.686;23.362;2023-06-24T05:51:02;10.80;;;8.85;;
41687;SDS011;27371;42.686;23.362;2023-06-24T05:53:30;11.93;;;9.70;;
41687;SDS011;27371;42.686;23.362;2023-06-24T05:55:56;11.55;;;10.35;;
41687;SDS011;27371;42.686;23.362;2023-06-24T05:58:21;11.43;;;9.88;;
41687;SDS011;27371;42.686;23.362;2023-06-24T06:00:47;13.02;;;9.40;;
41687;SDS011;27371;42.686;23.362;2023-06-24T06:03:12;11.23;;;10.13;;
41687;SDS011;27371;42.686;23.362;2023-06-24T06:05:38;12.77;;;9.80;;
41687;SDS011;27371;42.686;23.362;2023-06-24T06:08:04;11.65;;;9.50;;
41687;SDS011;27371;42.686;23.362;2023-06-24T06:10:29;10.90;;;9.60;;
41687;SDS011;27371;42.686;23.362;2023-06-24T06:12:55;11.10;;;9.60;;
41687;SDS011;27371;42.686;23.362;2023-06-24T06:15:20;9.88;;;8.88;;
41687;SDS011;27371;42.686;23.362;2023-06-24T06:17:46;9.98;;;8.30;;
41687;SDS011;27371;42.686;23.362;2023-06-24T06:20:11;9.40;;;8.40;;
41687;SDS011;27371;42.686;23.362;2023-06-24T06:22:37;10.07;;;7.90;;
41687;SDS011;27371;42.686;23.362;2023-06-24T06:25:06;8.77;;;7.20;;
41687;SDS011;27371;42.686;23.362;2023-06-24T06:27:33;9.68;;;6.85;;
41687;SDS011;27371;42.686;23.362;2023-06-24T06:29:58;8.50;;;7.50;;
41687;SDS011;27371;42.686;23.362;2023-06-24T06:32:24;9.20;;;7.53;;
41687;SDS011;27371;42.686;23.362;2023-06-24T06:34:50;9.82;;;7.40;;
41687;SDS011;27371;42.686;23.362;2023-06-24T06:37:15;11.95;;;7.25;;
41687;SDS011;27371;42.686;23.362;2023-06-24T06:39:40;8.82;;;7.00;;
41687;SDS011;27371;42.686;23.362;2023-06-24T06:42:06;9.30;;;7.78;;
41687;SDS011;27371;42.686;23.362;2023-06-24T06:44:31;10.45;;;8.23;;
41687;SDS011;27371;42.686;23.362;2023-06-24T06:46:57;8.45;;;7.47;;
41687;SDS011;27371;42.686;23.362;2023-06-24T06:49:23;8.15;;;7.32;;
41687;SDS011;27371;42.686;23.362;2023-06-24T06:51:49;8.82;;;7.93;;
41687;SDS011;27371;42.686;23.362;2023-06-24T06:54:14;10.70;;;7.60;;
41687;SDS011;27371;42.686;23.362;2023-06-24T06:56:40;9.93;;;7.45;;
41687;SDS011;27371;42.686;23.362;2023-06-24T06:59:05;8.68;;;7.63;;
41687;SDS011;27371;42.686;23.362;2023-06-24T07:01:31;7.88;;;7.18;;
41687;SDS011;27371;42.686;23.362;2023-06-24T07:03:56;8.57;;;7.68;;
41687;SDS011;27371;42.686;23.362;2023-06-24T07:06:22;11.88;;;8.30;;
41687;SDS011;27371;42.686;23.362;2023-06-24T07:08:47;10.15;;;8.35;;
41687;SDS011;27371;42.686;23.362;2023-06-24T07:11:13;9.95;;;7.40;;
41687;SDS011;27371;42.686;23.362;2023-06-24T07:13:38;10.02;;;8.15;;
41687;SDS011;27371;42.686;23.362;2023-06-24T07:16:04;12.02;;;7.72;;
41687;SDS011;27371;42.686;23.362;2023-06-24T07:18:30;9.82;;;7.05;;
41687;SDS011;27371;42.686;23.362;2023-06-24T07:20:56;9.23;;;7.35;;
41687;SDS011;27371;42.686;23.362;2023-06-24T07:23:22;8.13;;;7.10;;
41687;SDS011;27371;42.686;23.362;2023-06-24T07:25:48;8.70;;;7.13;;
41687;SDS011;27371;42.686;23.362;2023-06-24T07:28:13;8.50;;;7.70;;
41687;SDS011;27371;42.686;23.362;2023-06-24T07:30:40;8.73;;;6.57;;
41687;SDS011;27371;42.686;23.362;2023-06-24T07:33:06;7.30;;;6.57;;
41687;SDS011;27371;42.686;23.362;2023-06-24T07:35:32;10.95;;;7.30;;
41687;SDS011;27371;42.686;23.362;2023-06-24T07:37:58;7.97;;;6.47;;
41687;SDS011;27371;42.686;23.362;2023-06-24T07:40:24;8.55;;;7.60;;
41687;SDS011;27371;42.686;23.362;2023-06-24T07:42:49;8.35;;;7.50;;
41687;SDS011;27371;42.686;23.362;2023-06-24T07:45:15;9.45;;;7.53;;
41687;SDS011;27371;42.686;23.362;2023-06-24T07:47:40;9.52;;;7.28;;
41687;SDS011;27371;42.686;23.362;2023-06-24T07:50:06;9.90;;;7.70;;
41687;SDS011;27371;42.686;23.362;2023-06-24T07:52:34;8.68;;;7.40;;
41687;SDS011;27371;42.686;23.362;2023-06-24T07:54:59;8.90;;;7.35;;
41687;SDS011;27371;42.686;23.362;2023-06-24T07:57:26;11.80;;;7.07;;
41687;SDS011;27371;42.686;23.362;2023-06-24T07:59:52;9.95;;;6.57;;
41687;SDS011;27371;42.686;23.362;2023-06-24T08:02:19;9.23;;;8.43;;
41687;SDS011;27371;42.686;23.362;2023-06-24T08:04:45;7.70;;;6.90;;
41687;SDS011;27371;42.686;23.362;2023-06-24T08:07:10;8.65;;;7.05;;
41687;SDS011;27371;42.686;23.362;2023-06-24T08:09:36;8.00;;;7.20;;
41687;SDS011;27371;42.686;23.362;2023-06-24T08:12:02;8.45;;;7.43;;
41687;SDS011;27371;42.686;23.362;2023-06-24T08:14:28;8.32;;;7.32;;
41687;SDS011;27371;42.686;23.362;2023-06-24T08:16:54;9.10;;;7.63;;
41687;SDS011;27371;42.686;23.362;2023-06-24T08:19:19;10.23;;;7.45;;
41687;SDS011;27371;42.686;23.362;2023-06-24T08:21:45;9.82;;;6.93;;
41687;SDS011;27371;42.686;23.362;2023-06-24T08:24:10;10.65;;;7.70;;
41687;SDS011;27371;42.686;23.362;2023-06-24T08:26:36;8.32;;;6.75;;
41687;SDS011;27371;42.686;23.362;2023-06-24T08:29:01;7.90;;;6.97;;
41687;SDS011;27371;42.686;23.362;2023-06-24T08:31:27;9.43;;;7.55;;
41687;SDS011;27371;42.686;23.362;2023-06-24T08:33:52;9.32;;;7.38;;
41687;SDS011;27371;42.686;23.362;2023-06-24T08:36:21;10.48;;;7.40;;
41687;SDS011;27371;42.686;23.362;2023-06-24T08:38:48;10.27;;;7.25;;
41687;SDS011;27371;42.686;23.362;2023-06-24T08:41:13;8.52;;;6.95;;
41687;SDS011;27371;42.686;23.362;2023-06-24T08:43:39;9.18;;;7.15;;
41687;SDS011;27371;42.686;23.362;2023-06-24T08:46:05;11.25;;;7.57;;
41687;SDS011;27371;42.686;23.362;2023-06-24T08:48:31;7.95;;;7.00;;
41687;SDS011;27371;42.686;23.362;2023-06-24T08:50:58;7.70;;;7.00;;
41687;SDS011;27371;42.686;23.362;2023-06-24T08:53:27;9.02;;;7.45;;
41687;SDS011;27371;42.686;23.362;2023-06-24T08:55:54;7.50;;;6.65;;
41687;SDS011;27371;42.686;23.362;2023-06-24T08:58:22;7.75;;;6.95;;
41687;SDS011;27371;42.686;23.362;2023-06-24T09:00:48;8.57;;;7.15;;
41687;SDS011;27371;42.686;23.362;2023-06-24T09:03:13;9.63;;;6.90;;
41687;SDS011;27371;42.686;23.362;2023-06-24T09:05:39;7.53;;;6.72;;
41687;SDS011;27371;42.686;23.362;2023-06-24T09:08:05;9.48;;;7.20;;
41687;SDS011;27371;42.686;23.362;2023-06-24T09:13:04;8.40;;;7.53;;
41687;SDS011;27371;42.686;23.362;2023-06-24T09:15:34;9.05;;;7.35;;
41687;SDS011;27371;42.686;23.362;2023-06-24T09:18:01;9.52;;;7.88;;
41687;SDS011;27371;42.686;23.362;2023-06-24T09:20:28;8.05;;;7.13;;
41687;SDS011;27371;42.686;23.362;2023-06-24T09:23:02;7.45;;;6.75;;
41687;SDS011;27371;42.686;23.362;2023-06-24T09:25:29;8.82;;;6.85;;
41687;SDS011;27371;42.686;23.362;2023-06-24T09:27:58;9.60;;;7.50;;
41687;SDS011;27371;42.686;23.362;2023-06-24T09:30:25;11.68;;;7.95;;
41687;SDS011;27371;42.686;23.362;2023-06-24T09:32:51;9.30;;;7.68;;
41687;SDS011;27371;42.686;23.362;2023-06-24T09:35:18;8.23;;;7.38;;
41687;SDS011;27371;42.686;23.362;2023-06-24T09:37:57;9.05;;;8.20;;
41687;SDS011;27371;42.686;23.362;2023-06-24T09:40:24;7.78;;;7.00;;
41687;SDS011;27371;42.686;23.362;2023-06-24T09:42:54;9.27;;;7.30;;
41687;SDS011;27371;42.686;23.362;2023-06-24T09:45:22;8.77;;;6.95;;
41687;SDS011;27371;42.686;23.362;2023-06-24T09:47:49;8.38;;;7.07;;
41687;SDS011;27371;42.686;23.362;2023-06-24T09:50:15;10.13;;;7.05;;
41687;SDS011;27371;42.686;23.362;2023-06-24T09:52:41;11.43;;;7.03;;
41687;SDS011;27371;42.686;23.362;2023-06-24T09:55:09;12.70;;;7.18;;
41687;SDS011;27371;42.686;23.362;2023-06-24T09:57:35;11.43;;;7.43;;
41687;SDS011;27371;42.686;23.362;2023-06-24T10:00:03;9.90;;;7.13;;
41687;SDS011;27371;42.686;23.362;2023-06-24T10:02:30;8.65;;;6.65;;
41687;SDS011;27371;42.686;23.362;2023-06-24T10:04:57;8.35;;;6.82;;
41687;SDS011;27371;42.686;23.362;2023-06-24T10:07:24;8.07;;;6.63;;
41687;SDS011;27371;42.686;23.362;2023-06-24T10:09:52;8.85;;;6.82;;
41687;SDS011;27371;42.686;23.362;2023-06-24T10:12:18;7.72;;;6.93;;
41687;SDS011;27371;42.686;23.362;2023-06-24T10:14:44;7.72;;;6.38;;
41687;SDS011;27371;42.686;23.362;2023-06-24T10:17:11;7.90;;;6.45;;
41687;SDS011;27371;42.686;23.362;2023-06-24T10:19:37;8.27;;;5.85;;
41687;SDS011;27371;42.686;23.362;2023-06-24T10:22:07;7.05;;;6.38;;
41687;SDS011;27371;42.686;23.362;2023-06-24T10:24:38;7.43;;;6.53;;
41687;SDS011;27371;42.686;23.362;2023-06-24T10:27:05;6.80;;;6.10;;
41687;SDS011;27371;42.686;23.362;2023-06-24T10:32:00;8.63;;;6.82;;
41687;SDS011;27371;42.686;23.362;2023-06-24T10:34:29;7.22;;;6.40;;
41687;SDS011;27371;42.686;23.362;2023-06-24T10:37:18;10.27;;;6.10;;
41687;SDS011;27371;42.686;23.362;2023-06-24T10:39:48;8.63;;;6.55;;
41687;SDS011;27371;42.686;23.362;2023-06-24T10:44:55;13.50;;;6.72;;
41687;SDS011;27371;42.686;23.362;2023-06-24T10:47:26;9.10;;;6.45;;
41687;SDS011;27371;42.686;23.362;2023-06-24T10:49:52;7.03;;;5.65;;
41687;SDS011;27371;42.686;23.362;2023-06-24T10:52:21;6.35;;;5.72;;
41687;SDS011;27371;42.686;23.362;2023-06-24T10:54:48;6.97;;;5.35;;
41687;SDS011;27371;42.686;23.362;2023-06-24T10:57:15;7.28;;;5.40;;
41687;SDS011;27371;42.686;23.362;2023-06-24T10:59:47;8.32;;;5.82;;
41687;SDS011;27371;42.686;23.362;2023-06-24T11:02:13;6.93;;;5.47;;
41687;SDS011;27371;42.686;23.362;2023-06-24T11:04:45;7.53;;;5.97;;
41687;SDS011;27371;42.686;23.362;2023-06-24T11:07:12;8.80;;;5.07;;
41687;SDS011;27371;42.686;23.362;2023-06-24T11:09:42;6.38;;;4.85;;
41687;SDS011;27371;42.686;23.362;2023-06-24T11:12:13;8.07;;;5.70;;
41687;SDS011;27371;42.686;23.362;2023-06-24T11:14:38;6.95;;;5.10;;
41687;SDS011;27371;42.686;23.362;2023-06-24T11:17:04;5.80;;;4.82;;
41687;SDS011;27371;42.686;23.362;2023-06-24T11:19:30;8.25;;;5.15;;
41687;SDS011;27371;42.686;23.362;2023-06-24T11:22:02;8.05;;;4.93;;
41687;SDS011;27371;42.686;23.362;2023-06-24T11:24:28;9.75;;;5.35;;
41687;SDS011;27371;42.686;23.362;2023-06-24T11:26:54;7.15;;;4.22;;
41687;SDS011;27371;42.686;23.362;2023-06-24T11:29:20;6.32;;;4.30;;
41687;SDS011;27371;42.686;23.362;2023-06-24T11:31:45;6.70;;;4.28;;
41687;SDS011;27371;42.686;23.362;2023-06-24T11:34:11;7.18;;;4.72;;
41687;SDS011;27371;42.686;23.362;2023-06-24T11:36:37;6.20;;;4.28;;
41687;SDS011;27371;42.686;23.362;2023-06-24T11:39:03;8.40;;;4.97;;
41687;SDS011;27371;42.686;23.362;2023-06-24T11:41:28;8.15;;;4.70;;
41687;SDS011;27371;42.686;23.362;2023-06-24T11:43:54;8.77;;;4.60;;
41687;SDS011;27371;42.686;23.362;2023-06-24T11:46:30;7.10;;;4.78;;
41687;SDS011;27371;42.686;23.362;2023-06-24T11:49:06;5.32;;;4.57;;
41687;SDS011;27371;42.686;23.362;2023-06-24T11:51:34;9.68;;;4.40;;
41687;SDS011;27371;42.686;23.362;2023-06-24T11:54:00;5.22;;;4.50;;
41687;SDS011;27371;42.686;23.362;2023-06-24T11:56:37;9.77;;;5.10;;
41687;SDS011;27371;42.686;23.362;2023-06-24T11:59:04;7.63;;;5.13;;
41687;SDS011;27371;42.686;23.362;2023-06-24T12:01:31;5.20;;;4.70;;
41687;SDS011;27371;42.686;23.362;2023-06-24T12:03:59;7.47;;;5.10;;
41687;SDS011;27371;42.686;23.362;2023-06-24T12:06:26;6.00;;;4.97;;
41687;SDS011;27371;42.686;23.362;2023-06-24T12:08:51;5.40;;;4.90;;
41687;SDS011;27371;42.686;23.362;2023-06-24T12:11:16;5.10;;;4.60;;
41687;SDS011;27371;42.686;23.362;2023-06-24T12:13:42;7.38;;;5.25;;
41687;SDS011;27371;42.686;23.362;2023-06-24T12:16:07;9.93;;;4.88;;
41687;SDS011;27371;42.686;23.362;2023-06-24T12:18:33;6.03;;;4.90;;
41687;SDS011;27371;42.686;23.362;2023-06-24T12:20:59;6.78;;;5.68;;
41687;SDS011;27371;42.686;23.362;2023-06-24T12:23:25;5.57;;;5.00;;
41687;SDS011;27371;42.686;23.362;2023-06-24T12:25:50;5.47;;;4.97;;
41687;SDS011;27371;42.686;23.362;2023-06-24T12:28:15;9.70;;;5.45;;
41687;SDS011;27371;42.686;23.362;2023-06-24T12:30:41;6.25;;;5.10;;
41687;SDS011;27371;42.686;23.362;2023-06-24T12:33:06;6.97;;;5.30;;
41687;SDS011;27371;42.686;23.362;2023-06-24T12:35:33;6.97;;;5.13;;
41687;SDS011;27371;42.686;23.362;2023-06-24T12:37:59;11.13;;;5.38;;
41687;SDS011;27371;42.686;23.362;2023-06-24T12:40:25;6.75;;;5.28;;
41687;SDS011;27371;42.686;23.362;2023-06-24T12:42:50;6.30;;;5.70;;
41687;SDS011;27371;42.686;23.362;2023-06-24T12:45:16;6.28;;;5.25;;
41687;SDS011;27371;42.686;23.362;2023-06-24T12:47:41;7.70;;;5.18;;
41687;SDS011;27371;42.686;23.362;2023-06-24T12:50:07;8.77;;;5.20;;
41687;SDS011;27371;42.686;23.362;2023-06-24T12:52:33;6.15;;;5.22;;
41687;SDS011;27371;42.686;23.362;2023-06-24T12:54:59;8.40;;;5.90;;
41687;SDS011;27371;42.686;23.362;2023-06-24T12:57:25;10.10;;;5.65;;
41687;SDS011;27371;42.686;23.362;2023-06-24T12:59:51;7.32;;;5.68;;
41687;SDS011;27371;42.686;23.362;2023-06-24T13:02:16;6.43;;;5.32;;
41687;SDS011;27371;42.686;23.362;2023-06-24T13:04:42;5.72;;;5.22;;
41687;SDS011;27371;42.686;23.362;2023-06-24T13:07:07;8.40;;;5.65;;
41687;SDS011;27371;42.686;23.362;2023-06-24T13:09:34;8.05;;;5.90;;
41687;SDS011;27371;42.686;23.362;2023-06-24T13:12:00;6.78;;;5.85;;
41687;SDS011;27371;42.686;23.362;2023-06-24T13:14:25;6.07;;;5.47;;
41687;SDS011;27371;42.686;23.362;2023-06-24T13:16:53;8.02;;;5.25;;
41687;SDS011;27371;42.686;23.362;2023-06-24T13:19:19;9.13;;;6.22;;
41687;SDS011;27371;42.686;23.362;2023-06-24T13:21:44;12.00;;;6.18;;
41687;SDS011;27371;42.686;23.362;2023-06-24T13:24:10;12.48;;;7.43;;
41687;SDS011;27371;42.686;23.362;2023-06-24T13:26:37;6.97;;;6.25;;
41687;SDS011;27371;42.686;23.362;2023-06-24T13:29:03;8.73;;;6.00;;
41687;SDS011;27371;42.686;23.362;2023-06-24T13:31:28;9.75;;;6.18;;
41687;SDS011;27371;42.686;23.362;2023-06-24T13:33:54;17.80;;;6.80;;
41687;SDS011;27371;42.686;23.362;2023-06-24T13:36:30;27.70;;;6.60;;
41687;SDS011;27371;42.686;23.362;2023-06-24T13:39:07;24.02;;;5.90;;
41687;SDS011;27371;42.686;23.362;2023-06-24T13:41:34;23.10;;;5.40;;
41687;SDS011;27371;42.686;23.362;2023-06-24T13:44:00;21.50;;;6.38;;
41687;SDS011;27371;42.686;23.362;2023-06-24T13:46:27;19.42;;;5.18;;
41687;SDS011;27371;42.686;23.362;2023-06-24T13:48:53;12.05;;;5.00;;
41687;SDS011;27371;42.686;23.362;2023-06-24T13:51:19;7.05;;;4.15;;
41687;SDS011;27371;42.686;23.362;2023-06-24T13:53:46;8.32;;;3.88;;
41687;SDS011;27371;42.686;23.362;2023-06-24T13:56:16;12.25;;;4.10;;
41687;SDS011;27371;42.686;23.362;2023-06-24T13:58:41;6.40;;;4.25;;
41687;SDS011;27371;42.686;23.362;2023-06-24T14:01:07;7.82;;;4.60;;
41687;SDS011;27371;42.686;23.362;2023-06-24T14:03:32;13.07;;;5.05;;
41687;SDS011;27371;42.686;23.362;2023-06-24T14:05:58;13.95;;;5.00;;
41687;SDS011;27371;42.686;23.362;2023-06-24T14:08:26;11.70;;;4.78;;
41687;SDS011;27371;42.686;23.362;2023-06-24T14:10:52;11.77;;;5.53;;
41687;SDS011;27371;42.686;23.362;2023-06-24T14:13:18;11.70;;;5.22;;
41687;SDS011;27371;42.686;23.362;2023-06-24T14:15:44;12.68;;;4.97;;
41687;SDS011;27371;42.686;23.362;2023-06-24T14:18:09;11.68;;;5.45;;
41687;SDS011;27371;42.686;23.362;2023-06-24T14:20:35;11.07;;;5.22;;
41687;SDS011;27371;42.686;23.362;2023-06-24T14:23:01;14.45;;;5.90;;
41687;SDS011;27371;42.686;23.362;2023-06-24T14:25:26;14.95;;;6.00;;
41687;SDS011;27371;42.686;23.362;2023-06-24T14:27:52;11.43;;;5.53;;
41687;SDS011;27371;42.686;23.362;2023-06-24T14:30:17;9.45;;;5.28;;
41687;SDS011;27371;42.686;23.362;2023-06-24T14:32:43;20.35;;;6.75;;
41687;SDS011;27371;42.686;23.362;2023-06-24T14:35:08;13.75;;;6.53;;
41687;SDS011;27371;42.686;23.362;2023-06-24T14:37:34;20.00;;;9.98;;
41687;SDS011;27371;42.686;23.362;2023-06-24T14:40:00;14.23;;;5.82;;
41687;SDS011;27371;42.686;23.362;2023-06-24T14:42:26;14.15;;;5.72;;
41687;SDS011;27371;42.686;23.362;2023-06-24T14:44:51;16.23;;;5.70;;
41687;SDS011;27371;42.686;23.362;2023-06-24T14:47:17;13.35;;;6.03;;